createdAt,value
2022-12-18T00:01:24.105Z,98672.00
2022-12-18T00:03:52.964Z,98675.00
2022-12-18T00:06:20.560Z,98657.00
2022-12-18T00:08:47.217Z,98671.00
2022-12-18T00:11:20.745Z,98666.00
2022-12-18T00:13:47.941Z,98666.00
2022-12-18T00:16:20.576Z,98660.00
2022-12-18T00:18:52.170Z,98647.00
2022-12-18T00:21:19.867Z,98658.00
2022-12-18T00:23:48.523Z,98636.00
2022-12-18T00:26:22.098Z,98635.00
2022-12-18T00:28:50.296Z,98661.00
2022-12-18T00:31:21.084Z,98662.00
2022-12-18T00:33:47.992Z,98648.00
2022-12-18T00:36:22.821Z,98652.00
2022-12-18T00:38:50.926Z,98658.00
2022-12-18T00:41:38.731Z,98651.00
2022-12-18T00:44:07.817Z,98675.00
2022-12-18T00:46:34.258Z,98679.00
2022-12-18T00:49:00.452Z,98699.00
2022-12-18T00:51:27.202Z,98666.00
2022-12-18T00:53:54.047Z,98671.00
2022-12-18T00:56:23.569Z,98647.00
2022-12-18T00:58:49.919Z,98669.00
2022-12-18T01:01:17.204Z,98677.00
2022-12-18T01:03:45.329Z,98652.00
2022-12-18T01:06:14.516Z,98649.00
2022-12-18T01:08:40.837Z,98656.00
2022-12-18T01:11:17.305Z,98648.00
2022-12-18T01:13:44.142Z,98658.00
2022-12-18T01:16:17.388Z,98639.00
2022-12-18T01:18:43.544Z,98651.00
2022-12-18T01:21:13.588Z,98645.00
2022-12-18T01:23:40.376Z,98645.00
2022-12-18T01:26:13.599Z,98653.00
2022-12-18T01:28:40.998Z,98621.00
2022-12-18T01:31:27.305Z,98655.00
2022-12-18T01:33:56.148Z,98633.00
2022-12-18T01:36:29.227Z,98628.00
2022-12-18T01:38:56.127Z,98650.00
2022-12-18T01:41:47.640Z,98639.00
2022-12-18T01:45:23.028Z,98641.00
2022-12-18T01:48:03.587Z,98647.00
2022-12-18T01:50:40.180Z,98645.00
2022-12-18T01:53:20.955Z,98637.00
2022-12-18T01:55:54.978Z,98665.00
2022-12-18T01:58:50.050Z,98641.00
2022-12-18T02:01:16.907Z,98649.00
2022-12-18T02:03:44.482Z,98656.00
2022-12-18T02:06:19.782Z,98639.00
2022-12-18T02:09:12.659Z,98656.00
2022-12-18T02:12:03.659Z,98641.00
2022-12-18T02:14:43.172Z,98645.00
2022-12-18T02:17:21.150Z,98657.00
2022-12-18T02:20:24.644Z,98668.00
2022-12-18T02:22:59.975Z,98657.00
2022-12-18T02:26:42.350Z,98665.00
2022-12-18T02:29:34.525Z,98669.00
2022-12-18T02:32:07.604Z,98666.00
2022-12-18T02:34:40.240Z,98669.00
2022-12-18T02:37:16.358Z,98660.00
2022-12-18T02:39:46.297Z,98681.00
2022-12-18T02:42:14.123Z,98663.00
2022-12-18T02:44:50.241Z,98660.00
2022-12-18T02:47:24.344Z,98666.00
2022-12-18T02:50:21.455Z,98656.00
2022-12-18T02:53:26.518Z,98661.00
2022-12-18T02:56:22.534Z,98662.00
2022-12-18T02:59:04.997Z,98654.00
2022-12-18T03:01:54.957Z,98632.00
2022-12-18T03:04:36.009Z,98652.00
2022-12-18T03:07:14.798Z,98639.00
2022-12-18T03:09:49.493Z,98643.00
2022-12-18T03:12:31.522Z,98643.00
2022-12-18T03:15:18.168Z,98645.00
2022-12-18T03:17:58.042Z,98637.00
2022-12-18T03:20:30.582Z,98627.00
2022-12-18T03:23:09.575Z,98621.00
2022-12-18T03:25:42.865Z,98609.00
2022-12-18T03:28:16.162Z,98628.00
2022-12-18T03:30:47.082Z,98618.00
2022-12-18T03:33:24.358Z,98630.00
2022-12-18T03:35:51.885Z,98657.00
2022-12-18T03:38:18.953Z,98637.00
2022-12-18T03:41:07.788Z,98633.00
2022-12-18T03:44:15.093Z,98651.00
2022-12-18T03:46:55.043Z,98622.00
2022-12-18T03:50:06.065Z,98607.00
2022-12-18T03:53:00.355Z,98619.00
2022-12-18T03:55:33.837Z,98611.00
2022-12-18T03:58:06.117Z,98619.00
2022-12-18T04:00:44.326Z,98607.00
2022-12-18T04:03:13.845Z,98625.00
2022-12-18T04:05:48.109Z,98619.00
2022-12-18T04:08:15.367Z,98608.00
2022-12-18T04:10:49.007Z,98609.00
2022-12-18T04:13:34.218Z,98606.00
2022-12-18T04:16:02.569Z,98592.00
2022-12-18T04:18:28.839Z,98603.00
2022-12-18T04:20:55.354Z,98602.00
2022-12-18T04:23:22.521Z,98596.00
2022-12-18T04:25:49.328Z,98583.00
2022-12-18T04:28:22.955Z,98607.00
2022-12-18T04:30:49.831Z,98599.00
2022-12-18T04:33:16.622Z,98604.00
2022-12-18T04:35:43.039Z,98604.00
2022-12-18T04:38:10.090Z,98599.00
2022-12-18T04:40:37.758Z,98608.00
2022-12-18T04:43:09.489Z,98613.00
2022-12-18T04:45:35.782Z,98619.00
2022-12-18T04:48:03.465Z,98611.00
2022-12-18T04:50:30.203Z,98613.00
2022-12-18T04:52:57.086Z,98613.00
2022-12-18T04:55:23.332Z,98619.00
2022-12-18T04:57:49.673Z,98609.00
2022-12-18T05:00:16.138Z,98602.00
2022-12-18T05:02:42.519Z,98597.00
2022-12-18T05:05:09.859Z,98622.00
2022-12-18T05:07:36.182Z,98632.00
2022-12-18T05:10:03.333Z,98605.00
2022-12-18T05:12:31.306Z,98608.00
2022-12-18T05:14:57.417Z,98592.00
2022-12-18T05:17:23.515Z,98600.00
2022-12-18T05:19:49.668Z,98588.00
2022-12-18T05:22:15.775Z,98597.00
2022-12-18T05:24:41.906Z,98603.00
2022-12-18T05:27:08.014Z,98600.00
2022-12-18T05:29:34.124Z,98604.00
2022-12-18T05:32:00.234Z,98595.00
2022-12-18T05:34:26.413Z,98596.00
2022-12-18T05:36:52.520Z,98595.00
2022-12-18T05:39:18.629Z,98602.00
2022-12-18T05:41:44.728Z,98596.00
2022-12-18T05:44:10.825Z,98587.00
2022-12-18T05:46:37.008Z,98586.00
2022-12-18T05:49:03.297Z,98595.00
2022-12-18T05:51:29.389Z,98595.00
2022-12-18T05:53:55.657Z,98578.00
2022-12-18T05:56:23.214Z,98590.00
2022-12-18T05:58:53.896Z,98585.00
2022-12-18T06:01:25.217Z,98598.00
2022-12-18T06:03:51.573Z,98595.00
2022-12-18T06:06:19.898Z,98595.00
2022-12-18T06:08:47.049Z,98597.00
2022-12-18T06:11:16.498Z,98600.00
2022-12-18T06:13:42.783Z,98595.00
2022-12-18T06:16:09.195Z,98615.00
2022-12-18T06:18:38.465Z,98602.00
2022-12-18T06:21:04.738Z,98602.00
2022-12-18T06:23:30.828Z,98618.00
2022-12-18T06:25:56.960Z,98608.00
2022-12-18T06:28:23.065Z,98625.00
2022-12-18T06:30:49.914Z,98610.00
2022-12-18T06:33:17.167Z,98617.00
2022-12-18T06:35:43.321Z,98609.00
2022-12-18T06:38:09.434Z,98629.00
2022-12-18T06:40:39.390Z,98624.00
2022-12-18T06:43:06.339Z,98638.00
2022-12-18T06:45:32.485Z,98606.00
2022-12-18T06:47:58.609Z,98631.00
2022-12-18T06:50:25.441Z,98617.00
2022-12-18T06:52:51.600Z,98611.00
2022-12-18T06:55:18.143Z,98624.00
2022-12-18T06:57:44.267Z,98614.00
2022-12-18T07:00:11.091Z,98642.00
2022-12-18T07:02:37.322Z,98624.00
2022-12-18T07:05:10.246Z,98636.00
2022-12-18T07:07:37.058Z,98634.00
2022-12-18T07:10:03.740Z,98616.00
2022-12-18T07:12:29.947Z,98607.00
2022-12-18T07:14:56.108Z,98622.00
2022-12-18T07:17:22.209Z,98612.00
2022-12-18T07:19:48.303Z,98633.00
2022-12-18T07:22:14.434Z,98634.00
2022-12-18T07:24:40.597Z,98626.00
2022-12-18T07:27:06.720Z,98631.00
2022-12-18T07:29:34.195Z,98619.00
2022-12-18T07:32:00.391Z,98627.00
2022-12-18T07:34:26.554Z,98619.00
2022-12-18T07:36:52.671Z,98623.00
2022-12-18T07:39:18.788Z,98619.00
2022-12-18T07:42:04.817Z,98622.00
2022-12-18T07:44:32.638Z,98622.00
2022-12-18T07:46:58.759Z,98617.00
2022-12-18T07:49:24.854Z,98618.00
2022-12-18T07:51:50.993Z,98612.00
2022-12-18T07:54:17.122Z,98603.00
2022-12-18T07:56:43.236Z,98602.00
2022-12-18T07:59:09.414Z,98602.00
2022-12-18T08:01:36.025Z,98600.00
2022-12-18T08:04:02.261Z,98597.00
2022-12-18T08:06:28.353Z,98607.00
2022-12-18T08:08:56.123Z,98599.00
2022-12-18T08:11:25.432Z,98611.00
2022-12-18T08:13:52.052Z,98615.00
2022-12-18T08:16:19.544Z,98601.00
2022-12-18T08:18:46.360Z,98616.00
2022-12-18T08:21:17.046Z,98588.00
2022-12-18T08:23:43.844Z,98604.00
2022-12-18T08:26:11.889Z,98618.00
2022-12-18T08:28:38.456Z,98603.00
2022-12-18T08:31:05.126Z,98606.00
2022-12-18T08:33:31.693Z,98592.00
2022-12-18T08:36:00.146Z,98598.00
2022-12-18T08:38:26.686Z,98567.00
2022-12-18T08:41:07.080Z,98574.00
2022-12-18T08:43:52.040Z,98558.00
2022-12-18T08:46:20.681Z,98556.00
2022-12-18T08:48:47.278Z,98554.00
2022-12-18T08:51:15.761Z,98558.00
2022-12-18T08:53:42.773Z,98555.00
2022-12-18T08:56:09.138Z,98564.00
2022-12-18T08:58:35.252Z,98555.00
2022-12-18T09:01:03.479Z,98560.00
2022-12-18T09:03:29.816Z,98569.00
2022-12-18T09:05:56.027Z,98567.00
2022-12-18T09:08:22.145Z,98581.00
2022-12-18T09:10:50.419Z,98571.00
2022-12-18T09:13:17.847Z,98582.00
2022-12-18T09:15:55.439Z,98574.00
2022-12-18T09:18:23.777Z,98573.00
2022-12-18T09:20:51.988Z,98565.00
2022-12-18T09:23:18.353Z,98571.00
2022-12-18T09:25:44.809Z,98571.00
2022-12-18T09:28:17.547Z,98575.00
2022-12-18T09:30:49.389Z,98578.00
2022-12-18T09:33:17.020Z,98562.00
2022-12-18T09:35:45.934Z,98561.00
2022-12-18T09:38:16.261Z,98540.00
2022-12-18T09:41:16.123Z,98538.00
2022-12-18T09:43:55.654Z,98544.00
2022-12-18T09:46:33.133Z,98544.00
2022-12-18T09:49:06.380Z,98565.00
2022-12-18T09:51:42.767Z,98552.00
2022-12-18T09:54:29.614Z,98544.00
2022-12-18T09:56:55.730Z,98556.00
2022-12-18T09:59:30.868Z,98548.00
2022-12-18T10:01:57.431Z,98536.00
2022-12-18T10:04:24.775Z,98536.00
2022-12-18T10:07:09.824Z,98525.00
2022-12-18T10:10:04.639Z,98526.00
2022-12-18T10:12:49.187Z,98529.00
2022-12-18T10:16:17.878Z,98544.00
2022-12-18T10:19:13.184Z,98536.00
2022-12-18T10:22:11.323Z,98537.00
2022-12-18T10:24:54.824Z,98530.00
2022-12-18T10:27:27.025Z,98526.00
2022-12-18T10:29:54.507Z,98516.00
2022-12-18T10:32:28.677Z,98514.00
2022-12-18T10:35:00.495Z,98501.00
2022-12-18T10:37:30.055Z,98497.00
2022-12-18T10:40:21.857Z,98473.00
2022-12-18T10:43:12.753Z,98481.00
2022-12-18T10:45:39.667Z,98477.00
2022-12-18T10:48:19.782Z,98471.00
2022-12-18T10:53:37.781Z,98454.00
2022-12-18T10:56:06.640Z,98457.00
2022-12-18T10:58:36.831Z,98462.00
2022-12-18T11:01:16.001Z,98459.00
2022-12-18T11:04:02.487Z,98453.00
2022-12-18T11:06:33.169Z,98452.00
2022-12-18T11:09:08.008Z,98452.00
2022-12-18T11:11:38.847Z,98434.00
2022-12-18T11:14:18.191Z,98435.00
2022-12-18T11:17:23.881Z,98439.00
2022-12-18T11:19:38.999Z,98429.00
2022-12-18T11:22:23.226Z,98425.00
2022-12-18T11:28:25.665Z,98423.00
2022-12-18T11:31:24.002Z,98418.00
2022-12-18T11:34:28.093Z,98409.00
2022-12-18T11:36:48.164Z,98413.00
2022-12-18T11:39:38.796Z,98407.00
2022-12-18T11:42:37.760Z,98407.00
2022-12-18T11:45:15.526Z,98399.00
2022-12-18T11:48:09.287Z,98439.00
2022-12-18T11:50:36.785Z,98431.00
2022-12-18T11:53:06.177Z,98415.00
2022-12-18T11:55:50.812Z,98429.00
2022-12-18T11:58:53.943Z,98410.00
2022-12-18T12:01:55.423Z,98391.00
2022-12-18T12:04:58.888Z,98393.00
2022-12-18T12:07:36.749Z,98391.00
2022-12-18T12:10:23.801Z,98389.00
2022-12-18T12:13:23.975Z,98377.00
2022-12-18T12:16:04.035Z,98370.00
2022-12-18T12:18:53.444Z,98372.00
2022-12-18T12:21:28.817Z,98361.00
2022-12-18T12:24:11.677Z,98379.00
2022-12-18T12:27:15.307Z,98376.00
2022-12-18T12:30:20.750Z,98373.00
2022-12-18T12:33:13.412Z,98360.00
2022-12-18T12:36:22.962Z,98376.00
2022-12-18T12:38:58.418Z,98385.00
2022-12-18T12:41:49.759Z,98379.00
2022-12-18T12:44:25.572Z,98373.00
2022-12-18T12:46:55.309Z,98373.00
2022-12-18T12:49:27.890Z,98368.00
2022-12-18T12:52:11.057Z,98363.00
2022-12-18T12:54:38.938Z,98352.00
2022-12-18T12:57:33.868Z,98355.00
2022-12-18T13:00:13.163Z,98373.00
2022-12-18T13:03:12.670Z,98363.00
2022-12-18T13:05:51.591Z,98359.00
2022-12-18T13:08:28.789Z,98359.00
2022-12-18T13:11:19.718Z,98352.00
2022-12-18T13:13:56.264Z,98360.00
2022-12-18T13:16:27.739Z,98357.00
2022-12-18T13:18:58.044Z,98354.00
2022-12-18T13:21:32.586Z,98368.00
2022-12-18T13:24:35.563Z,98361.00
2022-12-18T13:27:40.371Z,98376.00
2022-12-18T13:30:31.622Z,98375.00
2022-12-18T13:33:18.734Z,98372.00
2022-12-18T13:36:09.764Z,98375.00
2022-12-18T13:38:39.335Z,98350.00
2022-12-18T13:41:28.422Z,98374.00
2022-12-18T13:43:59.387Z,98361.00
2022-12-18T13:46:47.822Z,98373.00
2022-12-18T13:49:13.825Z,98389.00
2022-12-18T13:51:47.903Z,98375.00
2022-12-18T13:54:39.244Z,98382.00
2022-12-18T13:57:26.387Z,98377.00
2022-12-18T13:59:52.603Z,98368.00
2022-12-18T14:02:24.675Z,98367.00
2022-12-18T14:04:52.246Z,98372.00
2022-12-18T14:07:31.392Z,98371.00
2022-12-18T14:10:45.150Z,98367.00
2022-12-18T14:13:10.402Z,98386.00
2022-12-18T14:15:43.899Z,98362.00
2022-12-18T14:18:25.674Z,98360.00
2022-12-18T14:20:56.866Z,98362.00
2022-12-18T14:23:40.240Z,98357.00
2022-12-18T14:26:30.106Z,98359.00
2022-12-18T14:29:03.843Z,98354.00
2022-12-18T14:31:31.984Z,98356.00
2022-12-18T14:33:58.354Z,98344.00
2022-12-18T14:36:27.871Z,98353.00
2022-12-18T14:38:59.287Z,98349.00
2022-12-18T14:41:27.938Z,98349.00
2022-12-18T14:43:54.845Z,98368.00
2022-12-18T14:46:35.365Z,98349.00
2022-12-18T14:49:29.481Z,98337.00
2022-12-18T14:52:01.442Z,98333.00
2022-12-18T14:54:30.459Z,98311.00
2022-12-18T14:57:27.021Z,98323.00
2022-12-18T14:59:53.305Z,98340.00
2022-12-18T15:02:28.278Z,98317.00
2022-12-18T15:05:18.387Z,98311.00
2022-12-18T15:07:51.371Z,98319.00
2022-12-18T15:10:31.148Z,98309.00
2022-12-18T15:12:57.157Z,98309.00
2022-12-18T15:15:39.463Z,98305.00
2022-12-18T15:18:08.602Z,98313.00
2022-12-18T15:20:48.732Z,98316.00
2022-12-18T15:23:35.480Z,98301.00
2022-12-18T15:26:09.891Z,98294.00
2022-12-18T15:28:50.677Z,98299.00
2022-12-18T15:31:18.021Z,98297.00
2022-12-18T15:34:00.897Z,98296.00
2022-12-18T15:36:27.197Z,98295.00
2022-12-18T15:38:56.046Z,98288.00
2022-12-18T15:41:33.965Z,98288.00
2022-12-18T15:44:02.885Z,98274.00
2022-12-18T15:46:30.945Z,98262.00
2022-12-18T15:49:02.235Z,98289.00
2022-12-18T15:51:37.191Z,98261.00
2022-12-18T15:54:11.381Z,98284.00
2022-12-18T15:56:56.029Z,98270.00
2022-12-18T15:59:23.476Z,98287.00
2022-12-18T16:01:53.409Z,98287.00
2022-12-18T16:04:22.139Z,98290.00
2022-12-18T16:09:36.386Z,98288.00
2022-12-18T16:12:02.896Z,98295.00
2022-12-18T16:14:30.771Z,98286.00
2022-12-18T16:17:03.679Z,98285.00
2022-12-18T16:19:30.230Z,98305.00
2022-12-18T16:21:58.986Z,98280.00
2022-12-18T16:24:29.314Z,98285.00
2022-12-18T16:26:59.472Z,98282.00
2022-12-18T16:29:28.338Z,98287.00
2022-12-18T16:31:59.410Z,98287.00
2022-12-18T16:34:35.827Z,98287.00
2022-12-18T16:37:07.788Z,98299.00
2022-12-18T16:39:35.900Z,98289.00
2022-12-18T16:42:16.277Z,98296.00
2022-12-18T16:44:43.843Z,98283.00
2022-12-18T16:47:11.097Z,98295.00
2022-12-18T16:49:41.078Z,98282.00
2022-12-18T16:52:07.668Z,98286.00
2022-12-18T16:54:35.738Z,98275.00
2022-12-18T16:57:04.404Z,98264.00
2022-12-18T16:59:31.101Z,98287.00
2022-12-18T17:01:58.358Z,98274.00
2022-12-18T17:04:24.594Z,98309.00
2022-12-18T17:06:53.298Z,98286.00
2022-12-18T17:09:27.591Z,98286.00
2022-12-18T17:11:54.376Z,98263.00
2022-12-18T17:14:24.131Z,98286.00
2022-12-18T17:17:13.649Z,98289.00
2022-12-18T17:19:37.845Z,98279.00
2022-12-18T17:22:04.224Z,98286.00
2022-12-18T17:24:34.840Z,98291.00
2022-12-18T17:27:02.186Z,98271.00
2022-12-18T17:29:28.289Z,98292.00
2022-12-18T17:31:54.379Z,98271.00
2022-12-18T17:34:21.354Z,98271.00
2022-12-18T17:36:47.465Z,98258.00
2022-12-18T17:39:19.608Z,98258.00
2022-12-18T17:41:46.826Z,98248.00
2022-12-18T17:44:12.958Z,98261.00
2022-12-18T17:46:40.551Z,98246.00
2022-12-18T17:49:06.703Z,98254.00
2022-12-18T17:51:33.159Z,98248.00
2022-12-18T17:53:59.630Z,98264.00
2022-12-18T17:56:26.084Z,98263.00
2022-12-18T17:58:52.732Z,98269.00
2022-12-18T18:01:23.261Z,98262.00
2022-12-18T18:03:53.539Z,98241.00
2022-12-18T18:06:20.481Z,98227.00
2022-12-18T18:08:46.589Z,98247.00
2022-12-18T18:11:36.587Z,98255.00
2022-12-18T18:14:10.191Z,98229.00
2022-12-18T18:16:50.044Z,98259.00
2022-12-18T18:19:21.518Z,98246.00
2022-12-18T18:21:51.308Z,98238.00
2022-12-18T18:24:25.039Z,98255.00
2022-12-18T18:26:51.678Z,98257.00
2022-12-18T18:29:26.692Z,98234.00
2022-12-18T18:31:53.510Z,98255.00
2022-12-18T18:34:29.833Z,98241.00
2022-12-18T18:36:56.238Z,98254.00
2022-12-18T18:39:22.815Z,98262.00
2022-12-18T18:41:49.156Z,98259.00
2022-12-18T18:44:20.554Z,98242.00
2022-12-18T18:46:52.479Z,98256.00
2022-12-18T18:49:20.996Z,98267.00
2022-12-18T18:51:50.299Z,98266.00
2022-12-18T18:54:16.435Z,98261.00
2022-12-18T18:57:18.683Z,98262.00
2022-12-18T18:59:31.568Z,98260.00
2022-12-18T19:01:59.877Z,98252.00
2022-12-18T19:04:31.070Z,98266.00
2022-12-18T19:06:57.149Z,98254.00
2022-12-18T19:09:23.353Z,98248.00
2022-12-18T19:12:08.371Z,98242.00
2022-12-18T19:14:34.485Z,98238.00
2022-12-18T19:17:00.825Z,98257.00
2022-12-18T19:19:27.655Z,98238.00
2022-12-18T19:21:53.766Z,98251.00
2022-12-18T19:24:22.353Z,98253.00
2022-12-18T19:26:48.682Z,98251.00
2022-12-18T19:29:15.155Z,98255.00
2022-12-18T19:31:41.476Z,98245.00
2022-12-18T19:34:08.745Z,98264.00
2022-12-18T19:36:38.106Z,98263.00
2022-12-18T19:39:17.227Z,98254.00
2022-12-18T19:41:44.361Z,98255.00
2022-12-18T19:44:14.839Z,98258.00
2022-12-18T19:46:42.374Z,98254.00
2022-12-18T19:49:10.556Z,98260.00
2022-12-18T19:51:37.767Z,98252.00
2022-12-18T19:54:04.330Z,98251.00
2022-12-18T19:56:34.015Z,98251.00
2022-12-18T19:59:01.367Z,98247.00
2022-12-18T20:01:29.550Z,98249.00
2022-12-18T20:03:57.623Z,98251.00
2022-12-18T20:06:45.970Z,98252.00
2022-12-18T20:09:12.137Z,98238.00
2022-12-18T20:11:41.537Z,98244.00
2022-12-18T20:14:10.151Z,98234.00
2022-12-18T20:16:36.745Z,98246.00
2022-12-18T20:19:04.502Z,98252.00
2022-12-18T20:21:31.096Z,98249.00
2022-12-18T20:23:59.192Z,98246.00
2022-12-18T20:26:26.261Z,98260.00
2022-12-18T20:28:54.019Z,98257.00
2022-12-18T20:31:20.282Z,98248.00
2022-12-18T20:33:47.707Z,98246.00
2022-12-18T20:36:22.595Z,98243.00
2022-12-18T20:38:53.142Z,98253.00
2022-12-18T20:41:23.563Z,98259.00
2022-12-18T20:43:50.287Z,98257.00
2022-12-18T20:46:17.341Z,98273.00
2022-12-18T20:48:44.309Z,98261.00
2022-12-18T20:51:14.863Z,98254.00
2022-12-18T20:53:42.652Z,98265.00
2022-12-18T20:56:21.306Z,98260.00
2022-12-18T20:58:49.616Z,98252.00
2022-12-18T21:01:19.954Z,98278.00
2022-12-18T21:03:47.909Z,98271.00
2022-12-18T21:06:17.402Z,98257.00
2022-12-18T21:08:44.236Z,98248.00
2022-12-18T21:11:37.793Z,98238.00
2022-12-18T21:14:23.159Z,98254.00
2022-12-18T21:16:51.022Z,98267.00
2022-12-18T21:19:24.631Z,98265.00
2022-12-18T21:21:53.979Z,98263.00
2022-12-18T21:24:20.980Z,98272.00
2022-12-18T21:26:48.477Z,98264.00
2022-12-18T21:29:22.001Z,98253.00
2022-12-18T21:31:49.469Z,98262.00
2022-12-18T21:34:19.280Z,98255.00
2022-12-18T21:36:45.819Z,98255.00
2022-12-18T21:39:14.231Z,98269.00
2022-12-18T21:41:59.425Z,98259.00
2022-12-18T21:44:25.772Z,98249.00
2022-12-18T21:46:58.218Z,98259.00
2022-12-18T21:49:27.709Z,98259.00
2022-12-18T21:51:56.895Z,98256.00
2022-12-18T21:54:24.659Z,98258.00
2022-12-18T21:57:05.926Z,98243.00
2022-12-18T21:59:40.794Z,98259.00
2022-12-18T22:02:15.361Z,98231.00
2022-12-18T22:04:43.664Z,98227.00
2022-12-18T22:07:10.799Z,98233.00
2022-12-18T22:09:38.479Z,98230.00
2022-12-18T22:12:05.483Z,98233.00
2022-12-18T22:14:31.777Z,98222.00
2022-12-18T22:16:58.021Z,98240.00
2022-12-18T22:19:24.789Z,98229.00
2022-12-18T22:21:51.163Z,98224.00
2022-12-18T22:24:23.645Z,98217.00
2022-12-18T22:27:01.711Z,98208.00
2022-12-18T22:29:47.265Z,98224.00
2022-12-18T22:32:16.219Z,98207.00
2022-12-18T22:34:43.257Z,98201.00
2022-12-18T22:37:11.577Z,98198.00
2022-12-18T22:39:37.883Z,98188.00
2022-12-18T22:42:04.350Z,98203.00
2022-12-18T22:44:30.594Z,98206.00
2022-12-18T22:47:05.784Z,98190.00
2022-12-18T22:49:34.723Z,98201.00
2022-12-18T22:52:05.764Z,98187.00
2022-12-18T22:54:31.847Z,98165.00
2022-12-18T22:56:57.992Z,98173.00
2022-12-18T22:59:24.594Z,98173.00
2022-12-18T23:01:57.070Z,98183.00
2022-12-18T23:04:27.877Z,98185.00
2022-12-18T23:06:57.298Z,98185.00
2022-12-18T23:09:23.828Z,98179.00
2022-12-18T23:11:50.505Z,98175.00
2022-12-18T23:14:16.603Z,98161.00
2022-12-18T23:16:42.943Z,98165.00
2022-12-18T23:19:11.668Z,98155.00
2022-12-18T23:21:38.577Z,98144.00
2022-12-18T23:24:05.446Z,98157.00
2022-12-18T23:26:31.667Z,98143.00
2022-12-18T23:28:57.919Z,98147.00
2022-12-18T23:31:29.120Z,98132.00
2022-12-18T23:33:57.541Z,98125.00
2022-12-18T23:36:24.851Z,98126.00
2022-12-18T23:38:54.632Z,98146.00
2022-12-18T23:41:24.833Z,98143.00
2022-12-18T23:43:52.779Z,98130.00
2022-12-18T23:46:23.224Z,98131.00
2022-12-18T23:48:50.400Z,98126.00
2022-12-18T23:51:22.936Z,98117.00
2022-12-18T23:53:50.020Z,98117.00
2022-12-18T23:56:16.122Z,98119.00
2022-12-18T23:58:43.617Z,98122.00
